Aviation Digital Data Service (ADDS)

Output produced by METARs form (1849 UTC 15 October 2018)
found at http://www.aviationweather.gov/metar/data/
 
KCNY 151720Z 1518/1618 04013KT P6SM SKC 
     FM152100 06008KT P6SM SKC 
     FM160600 04005KT P6SM SKC